Time;durP1;ratioP1;P1;durP2;ratioP2;P2;SDS_P1;SDS_P2;PMS_P1;PMS_P2;Temp;Humidity;BMP_temperature;BMP_pressure;BME280_temperature;BME280_humidity;BME280_pressure;Samples;Min_cycle;Max_cycle;Signal;HPM_P1;HPM_P2
2022/04/22 00:01:45;;;;;;;9.57;6.23;;;;;;;14.86;61.45;94479.41;5056111;28;20206;-85
2022/04/22 00:04:12;;;;;;;9.80;6.60;;;;;;;14.83;61.60;94468.66;5065264;28;20189;-83
2022/04/22 00:06:39;;;;;;;7.90;6.70;;;;;;;14.87;61.44;94467.34;5065721;28;20643;-80
2022/04/22 00:09:05;;;;;;;7.00;5.50;;;;;;;14.87;61.56;94464.78;5065417;28;20219;-82
2022/04/22 00:11:32;;;;;;;10.57;6.47;;;;;;;14.85;61.93;94469.28;5065170;28;20252;-79
2022/04/22 00:14:04;;;;;;;7.30;5.67;;;;;;;14.83;61.94;94466.88;5064773;28;20214;-84
2022/04/22 00:16:33;;;;;;;8.33;6.03;;;;;;;14.78;61.98;94462.25;5061893;28;20179;-82
2022/04/22 00:19:01;;;;;;;6.93;6.03;;;;;;;14.75;61.97;94457.41;5056071;28;20206;-81
2022/04/22 00:21:28;;;;;;;7.33;6.00;;;;;;;14.75;62.13;94461.75;5055483;28;20658;-83
2022/04/22 00:23:55;;;;;;;7.20;6.47;;;;;;;14.74;62.32;94439.56;5055851;28;20199;-84
2022/04/22 00:26:23;;;;;;;7.17;5.90;;;;;;;14.72;62.40;94433.78;5055579;28;20183;-82
2022/04/22 00:28:50;;;;;;;8.00;6.23;;;;;;;14.69;62.53;94436.72;5054578;28;20225;-82
2022/04/22 00:31:17;;;;;;;8.37;6.27;;;;;;;14.64;63.08;94426.94;5052283;28;20191;-83
2022/04/22 00:33:45;;;;;;;6.50;5.80;;;;;;;14.65;63.20;94428.53;5051654;28;20248;-84
2022/04/22 00:36:12;;;;;;;7.43;5.80;;;;;;;14.59;63.14;94436.91;5052247;28;20206;-83
2022/04/22 00:38:39;;;;;;;11.47;5.87;;;;;;;14.62;63.06;94446.88;5052071;28;20580;-82
2022/04/22 00:41:06;;;;;;;7.13;5.93;;;;;;;14.64;63.12;94447.50;5051828;28;20184;-78
2022/04/22 00:43:44;;;;;;;7.57;5.57;;;;;;;14.65;63.17;94438.03;5051944;28;20720;-84
2022/04/22 00:46:11;;;;;;;8.67;6.37;;;;;;;14.64;63.12;94447.50;5052200;28;20670;-80
2022/04/22 00:48:38;;;;;;;7.83;5.70;;;;;;;14.65;63.08;94440.59;5051450;28;20175;-80
2022/04/22 00:51:08;;;;;;;7.60;5.83;;;;;;;14.64;63.27;94437.22;5051655;28;20274;-83
2022/04/22 00:53:36;;;;;;;9.57;6.23;;;;;;;14.63;63.10;94434.78;5052054;28;20591;-83
2022/04/22 00:56:04;;;;;;;6.70;6.00;;;;;;;14.63;63.10;94427.88;5057932;28;20316;-84
2022/04/22 00:58:31;;;;;;;9.20;6.53;;;;;;;14.60;63.11;94410.22;5051440;28;20187;-83
2022/04/22 01:00:59;;;;;;;8.33;6.13;;;;;;;14.63;63.36;94411.63;5051616;28;20693;-82
2022/04/22 01:03:25;;;;;;;6.67;5.30;;;;;;;14.52;63.17;94389.66;5051499;28;20236;-82
2022/04/22 01:11:23;;;;;;;6.47;5.70;;;;;;;14.54;63.28;94403.16;5008724;28;20195;-82
2022/04/22 01:13:50;;;;;;;9.20;5.73;;;;;;;14.52;63.13;94400.75;5009089;28;20231;-78
2022/04/22 01:16:17;;;;;;;6.43;5.83;;;;;;;14.51;63.31;94383.72;5009650;28;20204;-83
2022/04/22 01:18:44;;;;;;;6.90;5.33;;;;;;;14.50;63.63;94371.81;5011692;28;20196;-80
2022/04/22 01:21:12;;;;;;;9.33;5.97;;;;;;;14.47;63.53;94364.41;5012674;28;20192;-82
2022/04/22 01:23:39;;;;;;;10.47;6.93;;;;;;;14.50;63.71;94364.09;5008968;28;20224;-83
2022/04/22 01:26:06;;;;;;;7.70;5.50;;;;;;;14.49;63.61;94359.91;5009975;28;20192;-82
2022/04/22 01:28:35;;;;;;;8.03;5.90;;;;;;;14.46;63.83;94352.50;5008725;28;20279;-84
2022/04/22 01:31:02;;;;;;;7.83;6.30;;;;;;;14.46;64.00;94338.84;5009321;28;20657;-84
2022/04/22 01:33:29;;;;;;;7.90;6.13;;;;;;;14.45;63.79;94332.91;5009286;28;20232;-83
2022/04/22 01:35:55;;;;;;;11.70;6.07;;;;;;;14.42;63.93;94319.56;5009748;28;20791;-84
2022/04/22 01:38:24;;;;;;;10.97;6.13;;;;;;;14.44;64.13;94327.94;5009461;28;20681;-81
2022/04/22 01:40:50;;;;;;;9.07;6.43;;;;;;;14.38;64.27;94321.72;5008369;28;20199;-82
2022/04/22 01:43:17;;;;;;;9.73;6.60;;;;;;;14.44;64.07;94330.50;5009243;28;20196;-85
2022/04/22 01:45:44;;;;;;;8.33;6.63;;;;;;;14.43;64.08;94342.56;5020356;28;20583;-82
2022/04/22 01:48:11;;;;;;;8.47;6.77;;;;;;;14.42;64.01;94335.00;5031218;28;20199;-83
2022/04/22 01:50:38;;;;;;;9.03;6.97;;;;;;;14.39;64.39;94333.59;5031267;28;20191;-81
2022/04/22 01:53:06;;;;;;;7.23;5.67;;;;;;;14.41;64.58;94354.00;5031820;28;20203;-85
2022/04/22 01:55:34;;;;;;;6.53;5.93;;;;;;;14.41;64.55;94356.56;5043587;28;20187;-82
2022/04/22 01:58:01;;;;;;;7.00;6.30;;;;;;;14.40;64.39;94355.75;5051056;28;20191;-83
2022/04/22 02:00:28;;;;;;;7.43;6.70;;;;;;;14.39;64.52;94356.75;5051634;28;20666;-80
2022/04/22 02:02:55;;;;;;;8.07;6.17;;;;;;;14.38;64.68;94375.72;5051357;28;20186;-83
2022/04/22 02:05:22;;;;;;;6.93;6.27;;;;;;;14.36;64.88;94387.94;5052619;28;20195;-81
2022/04/22 02:07:48;;;;;;;8.43;5.90;;;;;;;14.34;65.02;94395.03;5053382;28;20195;-83
2022/04/22 02:10:15;;;;;;;6.73;6.07;;;;;;;14.34;65.18;94400.19;5050373;28;20702;-83
2022/04/22 02:12:44;;;;;;;8.43;6.00;;;;;;;14.32;65.12;94396.97;5050229;28;20191;-82
2022/04/22 02:15:11;;;;;;;7.87;6.17;;;;;;;14.30;64.93;94398.91;5050384;28;20191;-83
2022/04/22 02:17:38;;;;;;;7.80;6.03;;;;;;;14.28;64.98;94403.41;5049860;28;20551;-81
2022/04/22 02:20:05;;;;;;;8.33;6.13;;;;;;;14.27;65.09;94397.47;5049933;28;20191;-82
2022/04/22 02:22:34;;;;;;;7.97;6.17;;;;;;;14.26;65.17;94393.31;5048904;28;20191;-81
2022/04/22 02:25:01;;;;;;;9.27;5.83;;;;;;;14.24;65.27;94384.94;5050509;28;20194;-79
2022/04/22 02:30:15;;;;;;;7.83;5.73;;;;;;;14.16;65.21;94361.03;5030525;28;20582;-82
2022/04/22 02:32:42;;;;;;;7.47;6.63;;;;;;;14.20;65.33;94357.16;5030108;28;20213;-82
2022/04/22 02:35:09;;;;;;;7.20;5.80;;;;;;;14.16;65.43;94359.28;5030393;28;20231;-79
2022/04/22 02:37:36;;;;;;;9.07;6.30;;;;;;;14.17;65.64;94349.78;5034128;28;20191;-81
2022/04/22 02:40:04;;;;;;;8.50;6.83;;;;;;;14.17;65.52;94352.38;5050169;28;20209;-83
2022/04/22 02:45:28;;;;;;;8.90;5.63;;;;;;;14.13;65.44;94341.59;5050185;28;20237;-81
2022/04/22 02:47:55;;;;;;;10.10;6.37;;;;;;;14.14;65.47;94363.78;5049937;28;20352;-82
2022/04/22 02:50:22;;;;;;;7.40;6.63;;;;;;;14.15;65.55;94370.50;5049897;28;20201;-82
2022/04/22 02:52:49;;;;;;;9.77;7.00;;;;;;;14.05;65.65;94351.91;5049617;28;20194;-79
2022/04/22 02:55:16;;;;;;;6.57;5.37;;;;;;;14.13;65.68;94363.94;5050002;28;20233;-82
2022/04/22 02:57:44;;;;;;;8.83;6.67;;;;;;;14.09;65.90;94352.41;5031251;28;20252;-83
2022/04/22 03:00:13;;;;;;;10.80;7.37;;;;;;;14.12;65.84;94362.31;5049944;28;20197;-81
2022/04/22 03:02:43;;;;;;;8.63;6.20;;;;;;;14.13;66.03;94358.81;5049835;28;20203;-82
2022/04/22 03:05:10;;;;;;;11.67;6.50;;;;;;;14.13;66.02;94351.09;5049923;28;20186;-81
2022/04/22 03:07:37;;;;;;;9.23;6.27;;;;;;;14.13;66.11;94351.09;5049746;28;20194;-83
2022/04/22 03:10:04;;;;;;;6.97;6.20;;;;;;;14.07;65.88;94357.69;5049789;28;20231;-82
2022/04/22 03:12:31;;;;;;;7.10;6.40;;;;;;;14.07;65.82;94349.97;5049528;28;20191;-77
2022/04/22 03:14:58;;;;;;;7.90;7.10;;;;;;;14.11;66.10;94353.81;5049565;28;20227;-81
2022/04/22 03:17:25;;;;;;;8.87;6.57;;;;;;;14.12;66.01;94349.47;5049506;28;20179;-81
2022/04/22 03:19:56;;;;;;;8.37;6.30;;;;;;;14.12;65.99;94372.59;5053681;28;20183;-81
2022/04/22 03:22:23;;;;;;;9.97;6.73;;;;;;;14.11;66.48;94376.16;5052975;28;20193;-82
2022/04/22 03:24:50;;;;;;;14.63;7.77;;;;;;;14.12;66.20;94380.31;5053519;28;20202;-81
2022/04/22 03:27:17;;;;;;;8.73;7.37;;;;;;;14.10;66.27;94382.28;5053210;28;20213;-83
2022/04/22 03:29:44;;;;;;;9.43;6.57;;;;;;;14.12;66.31;94388.88;5053067;28;20201;-82
2022/04/22 03:32:11;;;;;;;8.97;6.20;;;;;;;14.12;66.48;94386.28;5053454;28;20198;-84
2022/04/22 03:34:38;;;;;;;10.97;6.93;;;;;;;14.12;66.42;94383.72;5053107;28;20272;-82
2022/04/22 03:37:07;;;;;;;7.07;6.37;;;;;;;14.12;66.48;94382.91;5052720;28;20198;-82
2022/04/22 03:39:34;;;;;;;9.57;6.73;;;;;;;14.11;66.70;94387.25;5053576;28;20222;-82
2022/04/22 03:42:02;;;;;;;7.80;6.13;;;;;;;14.12;66.71;94395.75;5054706;28;20195;-83
2022/04/22 03:44:28;;;;;;;7.87;6.60;;;;;;;14.12;66.47;94398.31;5052928;28;20677;-84
2022/04/22 03:46:56;;;;;;;8.07;6.93;;;;;;;14.13;66.61;94410.25;5053051;28;20191;-83
2022/04/22 03:49:23;;;;;;;9.07;6.80;;;;;;;14.13;66.72;94405.09;5036178;28;20646;-84
2022/04/22 03:51:52;;;;;;;8.60;6.17;;;;;;;14.12;66.81;94396.59;5052815;28;20191;-85
2022/04/22 03:54:23;;;;;;;7.83;6.30;;;;;;;14.13;66.98;94395.59;5053596;28;20265;-82
2022/04/22 03:59:35;;;;;;;8.93;6.23;;;;;;;14.11;66.79;94394.94;5062827;28;20751;-83
2022/04/22 04:02:03;;;;;;;6.23;5.63;;;;;;;14.10;67.05;94390.78;5054805;28;20187;-85
2022/04/22 04:04:30;;;;;;;8.30;6.57;;;;;;;14.12;67.04;94395.75;5052894;28;20202;-81
2022/04/22 04:06:57;;;;;;;8.70;6.10;;;;;;;14.12;66.90;94406.03;5052642;28;20191;-81
2022/04/22 04:17:39;;;;;;;10.13;6.50;;;;;;;14.08;67.27;94371.38;5055360;28;20198;-82
2022/04/22 04:25:39;;;;;;;8.27;6.03;;;;;;;14.11;67.22;94384.66;5052073;28;20194;-80
2022/04/22 04:28:09;;;;;;;10.30;6.37;;;;;;;14.12;67.43;94375.19;5053193;28;20194;-83
2022/04/22 04:30:37;;;;;;;8.33;6.47;;;;;;;14.11;67.30;94373.59;5053225;28;20249;-82
2022/04/22 04:33:04;;;;;;;7.63;6.80;;;;;;;14.11;67.40;94392.38;5052700;28;20187;-82
2022/04/22 04:35:31;;;;;;;8.73;6.50;;;;;;;14.10;67.26;94383.06;5051751;28;20222;-84
2022/04/22 04:37:57;;;;;;;7.53;6.20;;;;;;;14.10;67.28;94377.94;5052120;28;20195;-83
2022/04/22 04:40:25;;;;;;;7.83;6.27;;;;;;;14.12;67.41;94360.56;5052603;28;20578;-84
2022/04/22 04:42:53;;;;;;;10.70;5.90;;;;;;;14.13;67.18;94371.66;5051700;28;20783;-81
2022/04/22 04:45:21;;;;;;;5.83;5.27;;;;;;;14.11;67.27;94366.66;5052121;28;20199;-79
2022/04/22 04:47:48;;;;;;;7.60;6.37;;;;;;;14.10;67.43;94364.28;5051765;28;20225;-82
2022/04/22 04:50:15;;;;;;;8.57;6.10;;;;;;;14.14;67.13;94373.25;5052189;28;20190;-83
2022/04/22 04:52:42;;;;;;;8.17;6.57;;;;;;;14.01;67.09;94343.72;5052012;28;20196;-81
2022/04/22 04:55:10;;;;;;;6.97;6.23;;;;;;;14.15;67.14;94355.06;5052035;28;20222;-82
2022/04/22 04:57:37;;;;;;;9.10;6.80;;;;;;;14.18;67.10;94371.97;5051674;28;20748;-83
2022/04/22 05:00:07;;;;;;;7.50;6.10;;;;;;;14.20;67.09;94362.28;5051660;28;20213;-82
2022/04/22 05:02:34;;;;;;;6.87;5.80;;;;;;;14.18;67.07;94364.25;5051542;28;20681;-83
2022/04/22 05:05:02;;;;;;;9.40;7.20;;;;;;;14.26;67.16;94356.50;5052831;28;20183;-83
2022/04/22 05:07:30;;;;;;;11.20;6.67;;;;;;;14.27;67.12;94347.78;5054186;28;20187;-81
2022/04/22 05:09:57;;;;;;;8.93;6.77;;;;;;;14.29;67.25;94344.09;5051205;28;20633;-82
2022/04/22 05:12:24;;;;;;;8.70;6.40;;;;;;;14.28;67.37;94339.91;5052964;28;20187;-78
2022/04/22 05:14:51;;;;;;;9.20;7.10;;;;;;;14.32;67.12;94328.31;5055236;28;20686;-75
2022/04/22 05:17:20;;;;;;;9.60;6.47;;;;;;;14.34;67.29;94325.59;5054102;28;20202;-78
2022/04/22 05:19:48;;;;;;;9.00;6.50;;;;;;;14.35;67.24;94314.31;5050773;28;20201;-80
2022/04/22 05:22:15;;;;;;;7.97;6.90;;;;;;;14.36;67.13;94302.25;5051165;28;20191;-78
2022/04/22 05:24:42;;;;;;;8.67;6.90;;;;;;;14.36;67.24;94303.06;5050640;28;20183;-77
2022/04/22 05:27:09;;;;;;;8.53;6.90;;;;;;;14.36;67.18;94291.97;5050371;28;20274;-79
2022/04/22 05:32:40;;;;;;;9.00;7.83;;;;;;;14.37;67.09;94273.78;5050807;28;20190;-76
2022/04/22 05:35:09;;;;;;;7.40;6.67;;;;;;;14.37;66.82;94253.19;5050606;28;20625;-81
2022/04/22 05:37:49;;;;;;;8.70;6.50;;;;;;;14.37;66.83;94230.03;5050674;28;20191;-80
2022/04/22 05:40:17;;;;;;;9.10;7.03;;;;;;;14.37;67.02;94221.53;5050775;28;20199;-77
2022/04/22 05:42:45;;;;;;;9.07;6.63;;;;;;;14.36;67.09;94207.88;5050240;28;20198;-80
2022/04/22 05:45:14;;;;;;;10.87;6.97;;;;;;;14.37;66.98;94201.75;5050468;28;20194;-77
2022/04/22 05:47:43;;;;;;;10.00;7.07;;;;;;;14.30;66.72;94172.56;5049077;28;20237;-77
2022/04/22 05:50:11;;;;;;;10.17;6.63;;;;;;;14.45;66.46;94190.59;5036101;28;20218;-77
2022/04/22 05:52:39;;;;;;;8.00;6.67;;;;;;;14.42;66.57;94168.63;5049809;28;20198;-77
2022/04/22 05:55:10;;;;;;;9.97;6.80;;;;;;;14.43;66.65;94170.22;5049465;28;20207;-77
2022/04/22 05:57:38;;;;;;;7.67;6.10;;;;;;;14.59;66.26;94183.91;5049592;28;20274;-78
2022/04/22 06:00:07;;;;;;;8.20;5.90;;;;;;;14.66;66.10;94184.81;5050129;28;20190;-78
2022/04/22 06:02:35;;;;;;;8.13;6.23;;;;;;;14.68;65.74;94185.44;5049560;28;20794;-78
2022/04/22 06:05:03;;;;;;;7.30;3.93;;;;;;;15.01;88.86;94186.72;5049622;28;20237;-74
2022/04/22 06:07:30;;;;;;;7.63;3.33;;;;;;;15.55;100.00;94180.47;5049371;28;20199;-78
2022/04/22 06:12:42;;;;;;;8.83;3.30;;;;;;;16.63;92.46;94171.03;5044134;28;20201;-75
2022/04/22 06:15:09;;;;;;;4.90;4.13;;;;;;;17.04;86.30;94171.09;5047967;28;20215;-74
2022/04/22 06:17:36;;;;;;;6.77;4.57;;;;;;;17.35;78.02;94170.66;5048705;28;20186;-74
2022/04/22 06:20:05;;;;;;;4.13;3.63;;;;;;;17.66;79.24;94174.56;5047073;28;20199;-78
2022/04/22 06:22:31;;;;;;;6.70;4.23;;;;;;;17.90;74.70;94168.13;5049058;28;20191;-76
2022/04/22 06:24:59;;;;;;;4.70;3.83;;;;;;;18.12;72.98;94164.38;5048995;28;20187;-85
2022/04/22 06:27:27;;;;;;;7.70;4.73;;;;;;;18.37;73.64;94167.19;5051485;28;20235;-76
2022/04/22 06:29:55;;;;;;;5.20;4.00;;;;;;;18.68;75.84;94170.97;5049501;28;20183;-76
2022/04/22 06:32:26;;;;;;;9.43;4.33;;;;;;;19.03;74.03;94176.75;5049389;28;20199;-74
2022/04/22 06:34:53;;;;;;;5.33;3.77;;;;;;;19.28;72.45;94156.16;5048563;28;20202;-75
2022/04/22 06:37:22;;;;;;;5.30;3.50;;;;;;;19.70;70.60;94179.97;5049045;28;20198;-75
2022/04/22 06:48:06;;;;;;;6.87;3.10;;;;;;;20.74;64.69;94197.75;5049179;28;20186;-77
2022/04/22 06:50:33;;;;;;;10.40;3.30;;;;;;;20.93;63.81;94185.56;5049171;28;20195;-77
2022/04/22 06:53:02;;;;;;;5.60;3.70;;;;;;;21.12;62.70;94188.22;5049477;28;20210;-75
2022/04/22 06:55:30;;;;;;;3.83;3.30;;;;;;;21.28;61.87;94183.22;5052452;28;20218;-77
2022/04/22 06:58:01;;;;;;;6.47;2.83;;;;;;;21.48;61.12;94161.44;5053328;28;20186;-76
2022/04/22 07:00:28;;;;;;;3.77;3.07;;;;;;;21.65;60.49;94159.06;5052797;28;20191;-77
2022/04/22 07:02:56;;;;;;;3.73;3.13;;;;;;;21.87;59.48;94161.97;5053421;28;20187;-74
2022/04/22 07:05:23;;;;;;;7.03;3.00;;;;;;;22.08;58.89;94155.50;5052432;28;20198;-76
2022/04/22 07:07:52;;;;;;;7.10;3.22;;;;;;;22.23;58.09;94164.50;5052116;28;20199;-78
2022/04/22 07:10:22;;;;;;;4.47;3.67;;;;;;;22.48;56.66;94146.09;5052217;28;20233;-79
2022/04/22 07:12:49;;;;;;;5.40;3.80;;;;;;;22.75;55.70;94169.13;5052483;28;20186;-77
2022/04/22 07:15:16;;;;;;;5.82;4.07;;;;;;;22.98;54.53;94157.97;5052768;28;20211;-76
2022/04/22 07:17:44;;;;;;;5.45;4.38;;;;;;;23.18;53.09;94137.50;5052304;28;20182;-76
2022/04/22 07:20:13;;;;;;;9.55;3.90;;;;;;;23.37;52.43;94153.03;5052666;28;20183;-78
2022/04/22 07:22:42;;;;;;;5.55;3.97;;;;;;;23.58;51.44;94155.03;5052502;28;20279;-77
2022/04/22 07:25:11;;;;;;;5.10;3.80;;;;;;;23.76;50.66;94160.09;5052385;28;20287;-74
2022/04/22 07:27:43;;;;;;;4.65;4.05;;;;;;;23.95;50.45;94152.88;5052980;28;20183;-74
2022/04/22 07:30:13;;;;;;;4.22;3.85;;;;;;;24.18;49.69;94161.63;5052183;28;20191;-74
2022/04/22 07:32:42;;;;;;;3.90;3.30;;;;;;;24.41;49.66;94168.59;5052213;28;20183;-73
2022/04/22 07:35:12;;;;;;;4.05;3.70;;;;;;;24.63;49.19;94163.47;5052340;28;20206;-81
2022/04/22 07:37:39;;;;;;;4.63;3.67;;;;;;;24.84;48.82;94160.13;5052389;28;20227;-80
2022/04/22 07:40:07;;;;;;;3.95;3.38;;;;;;;25.04;48.09;94172.69;5052456;28;20666;-78
2022/04/22 07:42:35;;;;;;;4.88;3.80;;;;;;;25.22;48.05;94159.41;5052417;28;20191;-77
2022/04/22 07:47:50;;;;;;;4.47;3.33;;;;;;;25.57;47.72;94153.03;5051561;28;20198;-74
2022/04/22 07:50:18;;;;;;;3.70;3.15;;;;;;;25.73;47.62;94148.72;5051981;28;20199;-74
2022/04/22 07:52:47;;;;;;;6.28;3.20;;;;;;;25.77;47.26;94142.00;5052823;28;20215;-76
2022/04/22 07:55:15;;;;;;;3.30;2.97;;;;;;;26.02;46.97;94170.31;5052530;28;20211;-77
2022/04/22 07:57:42;;;;;;;6.00;3.10;;;;;;;26.10;47.24;94161.22;5052533;28;20187;-80
2022/04/22 08:00:13;;;;;;;4.28;3.47;;;;;;;26.18;46.96;94161.56;5052501;28;20187;-77
2022/04/22 08:02:41;;;;;;;7.03;3.35;;;;;;;26.23;46.61;94181.78;5052691;28;20281;-79
2022/04/22 08:05:11;;;;;;;4.72;3.30;;;;;;;26.24;46.86;94189.41;5051904;28;20197;-80
2022/04/22 08:07:38;;;;;;;4.82;3.10;;;;;;;26.26;46.59;94181.31;5052417;28;20223;-75
2022/04/22 08:10:06;;;;;;;8.07;3.60;;;;;;;26.28;45.95;94193.13;5052081;28;20226;-78
2022/04/22 08:12:33;;;;;;;4.57;3.20;;;;;;;26.18;45.86;94172.06;5052185;28;20408;-79
2022/04/22 08:15:03;;;;;;;6.38;3.42;;;;;;;26.38;45.77;94194.25;5052072;28;20203;-75
2022/04/22 08:17:36;;;;;;;6.60;3.22;;;;;;;26.45;46.61;94179.16;5051628;28;20187;-78
2022/04/22 08:20:05;;;;;;;6.38;3.10;;;;;;;26.51;46.47;94171.09;5052612;28;20229;-79
2022/04/22 08:22:32;;;;;;;8.77;3.22;;;;;;;26.55;45.97;94158.25;5052416;28;20206;-81
2022/04/22 08:24:59;;;;;;;8.48;3.28;;;;;;;26.64;46.51;94150.69;5051657;28;20194;-73
2022/04/22 08:27:28;;;;;;;6.70;3.50;;;;;;;26.70;46.67;94160.22;5052014;28;20198;-79
2022/04/22 08:29:55;;;;;;;7.75;3.08;;;;;;;26.75;46.63;94162.88;5051730;28;20357;-75
2022/04/22 08:32:22;;;;;;;8.57;3.67;;;;;;;26.79;46.33;94160.53;5051592;28;20632;-76
2022/04/22 08:34:51;;;;;;;9.57;3.35;;;;;;;26.83;45.63;94162.41;5051681;28;20198;-72
2022/04/22 08:37:18;;;;;;;17.13;4.20;;;;;;;26.89;45.28;94147.47;5051981;28;20215;-75
2022/04/22 08:39:45;;;;;;;5.90;3.05;;;;;;;26.94;45.16;94137.00;5051996;28;20197;-77
2022/04/22 08:42:15;;;;;;;5.43;3.33;;;;;;;27.02;45.10;94137.31;5051568;28;20191;-76
2022/04/22 08:44:42;;;;;;;8.10;3.10;;;;;;;27.08;44.79;94129.50;5051325;28;20714;-74
2022/04/22 08:50:02;;;;;;;7.65;3.40;;;;;;;27.16;45.20;94127.22;5051764;28;20195;-73
2022/04/22 08:52:32;;;;;;;7.72;3.38;;;;;;;27.27;45.02;94130.66;5048525;28;20277;-73
2022/04/22 08:55:00;;;;;;;3.78;2.90;;;;;;;27.31;45.02;94131.75;5050503;28;20219;-74
2022/04/22 08:57:28;;;;;;;7.15;3.60;;;;;;;27.31;44.92;94121.25;5051260;28;20191;-76
2022/04/22 09:00:00;;;;;;;5.70;3.00;;;;;;;27.33;44.15;94129.66;5051217;28;21034;-75
2022/04/22 09:02:29;;;;;;;6.40;3.20;;;;;;;27.29;44.16;94117.28;5051290;28;20642;-77
2022/04/22 09:04:58;;;;;;;9.32;3.60;;;;;;;27.24;43.99;94116.22;5051297;28;20195;-77
2022/04/22 09:07:27;;;;;;;7.93;2.88;;;;;;;27.20;43.57;94102.03;5051485;28;20206;-72
2022/04/22 09:09:54;;;;;;;8.90;3.83;;;;;;;27.18;43.72;94095.44;5050808;28;20288;-78
2022/04/22 09:12:22;;;;;;;5.72;3.38;;;;;;;27.14;43.81;94100.41;5051735;28;20191;-78
2022/04/22 09:14:51;;;;;;;10.90;3.50;;;;;;;27.08;44.11;94098.78;5051356;28;20278;-75
2022/04/22 09:17:23;;;;;;;5.32;3.03;;;;;;;27.10;43.55;94109.06;5050108;28;20233;-76
2022/04/22 09:19:51;;;;;;;5.00;3.20;;;;;;;27.06;42.97;94095.63;5050977;28;20614;-79
2022/04/22 09:22:23;;;;;;;5.20;3.17;;;;;;;27.08;42.88;94100.63;5051685;28;20614;-79
2022/04/22 09:24:51;;;;;;;5.63;3.65;;;;;;;27.08;42.14;94105.88;5051863;28;20619;-77
2022/04/22 09:27:19;;;;;;;5.65;3.30;;;;;;;26.94;41.93;94084.53;5050968;28;20191;-76
2022/04/22 09:29:53;;;;;;;5.13;3.30;;;;;;;27.03;42.07;94096.16;5050930;28;20202;-76
2022/04/22 09:32:24;;;;;;;5.32;3.60;;;;;;;27.01;41.21;94104.25;5050956;28;20245;-76
2022/04/22 09:34:57;;;;;;;5.32;3.25;;;;;;;27.01;40.39;94099.00;5054923;28;20201;-79
2022/04/22 09:42:56;;;;;;;5.72;3.28;;;;;;;26.98;40.84;94083.75;5070618;28;20202;-78
2022/04/22 09:45:35;;;;;;;4.15;2.85;;;;;;;26.98;40.85;94075.09;5070759;28;20198;-76
2022/04/22 09:48:04;;;;;;;4.80;3.40;;;;;;;27.01;40.48;94085.09;5070745;28;20642;-77
2022/04/22 09:50:45;;;;;;;4.47;3.50;;;;;;;27.02;40.46;94065.66;5070989;28;20190;-76
2022/04/22 09:53:16;;;;;;;3.83;3.45;;;;;;;27.04;40.17;94055.72;5070516;28;20190;-76
2022/04/22 09:55:52;;;;;;;4.63;3.25;;;;;;;27.01;40.09;94064.88;5070380;28;20206;-77
2022/04/22 09:58:23;;;;;;;3.92;3.08;;;;;;;26.95;40.52;94059.88;5070689;28;20190;-77
2022/04/22 10:00:59;;;;;;;4.80;3.00;;;;;;;26.94;39.68;94037.28;5069830;28;20197;-77
2022/04/22 10:03:31;;;;;;;4.65;3.45;;;;;;;26.90;39.60;94039.66;5070802;28;20206;-76
2022/04/22 10:05:58;;;;;;;5.35;3.50;;;;;;;26.91;39.85;94035.97;5069858;28;20185;-76
2022/04/22 10:08:28;;;;;;;5.45;3.38;;;;;;;26.88;39.67;94031.22;5069989;28;20226;-76
2022/04/22 10:11:00;;;;;;;4.75;3.40;;;;;;;26.81;39.85;94038.53;5069960;28;20606;-76
2022/04/22 10:13:33;;;;;;;8.10;3.40;;;;;;;26.76;40.30;94034.03;5070351;28;20244;-75
2022/04/22 10:16:01;;;;;;;5.00;3.53;;;;;;;26.67;40.20;94019.03;5069731;28;20213;-77
2022/04/22 10:18:29;;;;;;;7.20;3.70;;;;;;;26.60;40.00;94019.28;5070213;28;20645;-76
2022/04/22 10:20:57;;;;;;;8.57;3.33;;;;;;;26.57;40.42;94021.63;5069858;28;20206;-76
2022/04/22 10:23:32;;;;;;;5.80;3.42;;;;;;;26.48;40.23;94005.56;5070414;28;20209;-77
2022/04/22 10:26:01;;;;;;;5.75;3.50;;;;;;;26.42;40.72;94017.81;5069656;28;20186;-77
2022/04/22 10:28:30;;;;;;;5.53;3.22;;;;;;;26.38;40.77;93998.41;5070267;28;20182;-75
2022/04/22 10:31:01;;;;;;;5.57;3.67;;;;;;;26.30;40.86;93990.22;5070015;28;20182;-76
2022/04/22 10:33:38;;;;;;;5.13;3.65;;;;;;;26.31;40.41;93991.81;5070234;28;20281;-75
2022/04/22 10:36:06;;;;;;;6.22;3.55;;;;;;;26.29;40.60;93997.28;5070089;28;20206;-77
2022/04/22 10:38:39;;;;;;;4.28;3.28;;;;;;;26.26;40.56;93990.72;5070216;28;20186;-77
2022/04/22 10:41:16;;;;;;;7.63;3.83;;;;;;;26.23;40.71;93988.59;5069815;28;20693;-78
2022/04/22 10:47:13;;;;;;;4.00;3.60;;;;;;;26.19;41.18;93984.91;5070072;28;20190;-77
2022/04/22 10:49:18;;;;;;;4.63;3.30;;;;;;;26.10;40.95;93968.06;5069628;28;20239;-78
2022/04/22 10:51:59;;;;;;;8.82;3.30;;;;;;;26.01;41.35;94004.44;5069915;28;20588;-77
2022/04/22 10:55:00;;;;;;;4.10;3.65;;;;;;;26.01;41.26;93972.97;5069546;28;20251;-77
2022/04/22 10:57:31;;;;;;;6.15;3.78;;;;;;;25.96;40.90;93990.50;5070383;28;20230;-76
2022/04/22 11:00:27;;;;;;;4.80;3.78;;;;;;;25.89;41.41;94003.00;5069758;28;20598;-74
2022/04/22 11:03:04;;;;;;;4.78;3.10;;;;;;;25.80;41.78;93986.97;5069331;28;20681;-77
2022/04/22 11:05:39;;;;;;;4.55;3.28;;;;;;;25.82;41.57;93966.56;5069076;28;20205;-75
2022/04/22 11:08:08;;;;;;;4.93;3.25;;;;;;;25.76;41.78;93983.22;5069526;28;20248;-75
2022/04/22 11:11:17;;;;;;;8.60;3.22;;;;;;;25.73;41.89;93984.53;5069573;28;20198;-75
2022/04/22 11:13:50;;;;;;;4.20;3.53;;;;;;;25.67;41.91;93946.22;5069773;28;20197;-76
2022/04/22 11:16:30;;;;;;;3.92;3.28;;;;;;;25.64;41.51;93972.91;5069524;28;20222;-77
2022/04/22 11:19:27;;;;;;;5.85;2.85;;;;;;;25.60;41.53;93947.47;5069437;28;20178;-75
2022/04/22 11:21:55;;;;;;;5.28;3.38;;;;;;;25.54;41.42;93957.13;5069405;28;20200;-75
2022/04/22 11:24:25;;;;;;;4.40;3.35;;;;;;;25.49;41.36;93959.69;5069280;28;20650;-75
2022/04/22 11:26:53;;;;;;;6.05;3.30;;;;;;;25.39;41.39;93967.44;5069540;28;20194;-75
2022/04/22 11:29:21;;;;;;;3.45;3.15;;;;;;;25.28;41.06;93959.50;5069726;28;20297;-75
2022/04/22 11:32:12;;;;;;;3.53;3.20;;;;;;;25.29;41.51;93949.81;5069562;28;20183;-75
2022/04/22 11:35:03;;;;;;;3.88;3.50;;;;;;;25.24;41.30;93939.28;5069118;28;20195;-75
2022/04/22 11:37:30;;;;;;;4.78;4.05;;;;;;;25.23;41.52;93935.09;5069702;28;20214;-77
2022/04/22 11:39:57;;;;;;;5.07;3.13;;;;;;;25.17;41.66;93931.66;5070944;28;20577;-76
2022/04/22 11:42:24;;;;;;;4.22;3.55;;;;;;;25.26;41.63;93943.25;5073035;28;20371;-75
2022/04/22 11:45:09;;;;;;;5.22;3.50;;;;;;;25.28;41.49;93916.81;5072851;28;20186;-77
2022/04/22 11:47:37;;;;;;;5.47;3.80;;;;;;;25.26;41.14;93914.47;5072820;28;20186;-75
2022/04/22 11:50:05;;;;;;;6.78;3.22;;;;;;;25.27;41.39;93920.50;5072412;28;20731;-76
2022/04/22 11:52:32;;;;;;;4.32;3.17;;;;;;;25.27;41.47;93907.41;5072768;28;20549;-75
2022/04/22 11:55:01;;;;;;;3.97;3.42;;;;;;;25.27;40.97;93900.34;5072135;28;20281;-75
2022/04/22 11:57:29;;;;;;;4.70;3.25;;;;;;;25.20;41.31;93902.34;5072534;28;20697;-76
2022/04/22 12:05:34;;;;;;;4.43;3.72;;;;;;;25.25;41.17;93904.22;5072645;28;20194;-76
2022/04/22 12:08:05;;;;;;;4.97;3.03;;;;;;;25.21;41.35;93898.69;5072253;28;20252;-76
2022/04/22 12:10:33;;;;;;;5.97;3.50;;;;;;;25.26;41.00;93900.59;5072185;28;20638;-75
2022/04/22 12:13:02;;;;;;;5.45;3.50;;;;;;;25.26;41.18;93888.28;5072263;28;20239;-75
2022/04/22 12:15:29;;;;;;;6.93;3.60;;;;;;;25.25;41.22;93902.41;5072629;28;20190;-75
2022/04/22 12:17:57;;;;;;;4.32;3.35;;;;;;;25.23;41.33;93896.63;5071774;28;20225;-76
2022/04/22 12:20:26;;;;;;;4.18;3.00;;;;;;;25.22;41.49;93874.13;5072438;28;20232;-75
2022/04/22 12:22:55;;;;;;;5.20;3.95;;;;;;;25.24;41.60;93873.88;5072164;28;20205;-75
2022/04/22 12:25:23;;;;;;;4.18;3.17;;;;;;;25.24;41.42;93871.25;5072047;28;20201;-76
2022/04/22 12:28:05;;;;;;;5.03;3.60;;;;;;;25.23;41.21;93854.75;5071806;28;20201;-75
2022/04/22 12:30:36;;;;;;;4.05;3.30;;;;;;;25.20;41.62;93844.78;5070044;28;20658;-77
2022/04/22 12:33:04;;;;;;;7.07;3.47;;;;;;;25.19;41.58;93852.88;5071698;28;20658;-78
2022/04/22 12:35:32;;;;;;;7.15;3.80;;;;;;;25.17;41.76;93849.72;5071744;28;20201;-75
2022/04/22 12:38:02;;;;;;;4.18;3.63;;;;;;;25.14;41.78;93834.53;5071879;28;20226;-76
2022/04/22 12:40:44;;;;;;;5.25;3.78;;;;;;;25.09;41.61;93830.06;5071899;28;20190;-77
2022/04/22 12:43:27;;;;;;;5.57;3.80;;;;;;;25.02;41.39;93835.44;5071317;28;20214;-77